Potrero (157, 448) Station Data

Red Flag Warning: No
Fire Weather Zone: 250
SDGE Region: Mountain Empire
Lat/Lon: 32.604/-116.607

Observations

Time Wind Speed/Gust Temp(F) RH Fuel Moist Fuel Temp(F) Dewpt(F) Tmax(F) Tmin(F) Accum Precip 10-min Precip SL Press(mb)
5/24 8:20am 358 4 G 6 73° 22% - - 32° 73.6° 62° - - -
5/24 8:10am 1 3 G 6 72° 24% - - 34° 73° 62° - - -
5/24 8:00am 359 2 G 3 71° 30% - - 38° 71.5° 62° - - -
5/24 7:50am 296 1 G 3 70° 37% - - 42° 70.2° 62° - - -
5/24 7:40am 144 1 G 2 70° 33% - - 40° 70.2° 62° - - -
5/24 7:30am 150 2 G 3 69° 33% - - 39° 69.9° 62° - - -
5/24 7:20am 126 2 G 3 68° 36% - - 40° 69.9° 62° - - -
5/24 7:10am 98 2 G 3 66° 35% - - 38° 69.9° 62° - - -
5/24 7:00am 130 3 G 4 64° 35% - - 35° 69.9° 62° - - -
5/24 6:50am 136 3 G 5 62° 39% - - 37° 69.9° 62° - - -
5/24 6:40am 151 4 G 5 63° 36% - - 36° 69.9° 62.2° - - -
5/24 6:30am 157 4 G 6 65° 31% - - 34° 69.9° 63.2° - - -
5/24 6:20am 123 3 G 4 67° 28% - - 33° 69.9° 63.2° - - -
5/24 6:10am 138 2 G 3 67° 28% - - 32° 69.9° 63.2° - - -
5/24 6:00am 122 2 G 3 67° 25% - - 30° 69.9° 63.2° - - -
5/24 5:50am 160 2 G 4 68° 25% - - 30° 69.9° 63.2° - - -
5/24 5:40am 151 2 G 3 67° 25% - - 31° 69.9° 63.2° - - -
5/24 5:30am 129 2 G 3 66° 31% - - 34° 69.9° 63.2° - - -
5/24 5:20am 71 3 G 6 67° 28% - - 33° 69.9° 63.2° - - -
5/24 5:10am 35 4 G 5 68° 28% - - 33° 69.9° 63.2° - - -
5/24 5:00am 31 5 G 6 68° 29% - - 35° 69.9° 63.2° - - -
5/24 4:50am 28 5 G 6 68° 31% - - 36° 69.9° 63.2° - - -
5/24 4:40am 30 5 G 6 67° 34% - - 38° 69.9° 63.2° - - -
5/24 4:30am 34 3 G 4 67° 38% - - 40° 69.9° 63.2° - - -
5/24 4:20am 36 3 G 4 67° 39% - - 41° 69.9° 63.2° - - -
5/24 4:10am 40 3 G 3 67° 40% - - 42° 69.9° 63.2° - - -
5/24 4:00am 43 2 G 3 67° 43% - - 44° 69.9° 63.2° - - -
5/24 3:50am 80 1 G 2 67° 45% - - 45° 69.9° 63.2° - - -
5/24 3:40am 67 2 G 3 67° 47% - - 46° 69.9° 63.2° - - -
5/24 3:30am 102 1 G 2 66° 49% - - 47° 69.9° 63.2° - - -
5/24 3:20am 107 2 G 4 67° 48% - - 46° 69.9° 63.2° - - -
5/24 3:10am 103 3 G 4 65° 50% - - 46° 69.9° 63.2° - - -
5/24 3:00am 114 2 G 3 65° 53% - - 47° 69.9° 63.2° - - -
5/24 2:50am 130 2 G 3 65° 51% - - 47° 69.9° 63.2° - - -
5/24 2:40am 115 3 G 4 64° 55% - - 47° 69.9° 63.2° - - -
5/24 2:30am 136 4 G 6 64° 55% - - 47° 69.9° 63.2° - - -
5/24 2:20am 136 3 G 4 65° 51% - - 47° 69.9° 64.5° - - -
5/24 2:10am 127 2 G 3 66° 48% - - 46° 69.9° 64.8° - - -
5/24 2:00am 106 2 G 2 65° 52% - - 47° 69.9° 64.8° - - -
5/24 1:50am 132 2 G 3 65° 55% - - 48° 69.9° 64.8° - - -
5/24 1:40am 144 2 G 4 65° 54% - - 49° 69.9° 65.1° - - -
5/24 1:30am 138 2 G 3 66° 54% - - 48° 69.9° 65.4° - - -
5/24 1:20am 137 2 G 3 66° 54% - - 49° 69.9° 65.4° - - -
5/24 1:10am 117 1 G 2 67° 52% - - 48° 69.9° 65.9° - - -
5/24 1:00am 40 3 G 4 69° 45% - - 47° 69.9° 67.8° - - -
5/24 12:50am 20 5 G 6 70° 45% - - 47° 69.9° 67.8° - - -
5/24 12:40am 13 5 G 6 69° 48% - - 49° 69.3° 67.8° - - -
5/24 12:30am 10 4 G 5 69° 50% - - 50° 69.1° 67.8° - - -
5/24 12:20am 4 4 G 5 69° 51% - - 50° 69.1° 67.8° - - -
5/24 12:10am 20 5 G 5 69° 52% - - 50° 69.1° 67.8° - - -
5/24 12:00am 46 2 G 4 68° 53% - - 50° 90.3° 64° - - -
5/23 11:50pm 77 1 G 2 68° 55% - - 51° 90.3° 64° - - -
5/23 11:40pm 111 1 G 1 68° 56% - - 52° 90.3° 64° - - -
5/23 11:30pm 141 1 G 2 68° 56% - - 52° 90.3° 64° - - -
5/23 11:20pm 144 1 G 2 67° 58% - - 52° 90.3° 64° - - -
5/23 11:10pm 118 2 G 2 67° 59% - - 52° 90.3° 64° - - -
5/23 11:00pm 111 2 G 2 66° 59% - - 52° 90.3° 64° - - -
5/23 10:50pm 133 3 G 3 67° 57% - - 52° 90.3° 64° - - -
5/23 10:40pm 118 2 G 4 68° 56% - - 51° 90.3° 64° - - -
5/23 10:30pm 105 3 G 4 66° 57% - - 51° 90.3° 64° - - -
5/23 10:20pm 107 3 G 4 67° 56% - - 51° 90.3° 64° - - -
5/23 10:10pm 121 3 G 6 69° 52% - - 50° 90.3° 64° - - -
5/23 10:00pm 20 6 G 8 70° 50% - - 50° 90.3° 64° - - -
5/23 9:50pm 13 6 G 7 70° 50% - - 51° 90.3° 64° - - -
5/23 9:40pm 4 5 G 6 70° 51% - - 51° 90.3° 64° - - -
5/23 9:30pm 348 5 G 6 69° 54% - - 52° 90.3° 64° - - -
5/23 9:20pm 341 5 G 6 68° 57% - - 52° 90.3° 64° - - -
5/23 9:10pm 334 4 G 5 67° 58% - - 52° 90.3° 64° - - -
5/23 9:00pm 308 4 G 6 68° 56% - - 52° 90.3° 64° - - -
5/23 8:50pm 297 4 G 7 69° 54% - - 52° 90.3° 64° - - -
5/23 8:40pm 307 4 G 6 69° 55% - - 52° 90.3° 64° - - -
5/23 8:30pm 308 3 G 5 69° 56% - - 52° 90.3° 64° - - -
5/23 8:20pm 286 2 G 5 70° 54% - - 52° 90.3° 64° - - -
5/23 8:10pm 265 4 G 7 71° 51% - - 52° 90.3° 64° - - -
5/23 8:00pm 285 3 G 3 72° 49% - - 52° 90.3° 64° - - -
5/23 7:50pm 326 3 G 4 73° 49% - - 52° 90.3° 64° - - -
5/23 7:40pm 315 3 G 5 73° 49% - - 52° 90.3° 64° - - -
5/23 7:30pm 306 4 G 5 73° 48% - - 52° 90.3° 64° - - -
5/23 7:20pm 288 5 G 8 74° 47% - - 52° 90.3° 64° - - -
5/23 7:10pm 284 6 G 9 74° 45% - - 52° 90.3° 64° - - -
5/23 7:00pm 276 6 G 10 76° 43% - - 51° 90.3° 64° - - -
5/23 6:50pm 283 6 G 9 76° 41% - - 51° 90.3° 64° - - -
5/23 6:40pm 284 8 G 11 78° 38% - - 50° 90.3° 64° - - -
5/23 6:30pm 278 7 G 11 79° 36% - - 50° 90.3° 64° - - -
5/23 6:20pm 277 8 G 12 79° 35% - - 49° 90.3° 64° - - -
5/23 6:10pm 267 9 G 14 79° 35% - - 49° 90.3° 64° - - -
5/23 6:00pm 272 10 G 13 80° 34% - - 50° 90.3° 64° - - -
5/23 5:50pm 278 9 G 13 81° 34% - - 49° 90.3° 64° - - -
5/23 5:40pm 282 8 G 12 81° 34% - - 49° 90.3° 64° - - -
5/23 5:30pm 282 10 G 13 81° 31% - - 48° 90.3° 64° - - -
5/23 5:20pm 297 9 G 14 84° 26% - - 45° 90.3° 64° - - -
5/23 5:10pm 313 9 G 15 84° 22% - - 41° 90.3° 64° - - -
5/23 5:00pm 299 11 G 17 83° 26% - - 44° 90.3° 64° - - -
5/23 4:50pm 309 12 G 17 83° 25% - - 43° 90.3° 64° - - -
5/23 4:40pm 305 11 G 16 83° 30% - - 48° 90.3° 64° - - -
5/23 4:30pm 303 12 G 17 83° 31% - - 49° 90.3° 64° - - -
5/23 4:20pm 296 13 G 17 82° 33% - - 50° 90.3° 64° - - -
5/23 4:10pm 294 11 G 17 82° 32% - - 49° 90.3° 64° - - -
5/23 4:00pm 292 11 G 18 82° 31% - - 48° 90.3° 64° - - -
5/23 3:50pm 296 12 G 19 82° 30% - - 47° 90.3° 64° - - -
5/23 3:40pm 296 12 G 19 81° 30% - - 47° 90.3° 64° - - -
5/23 3:30pm 289 13 G 17 81° 32% - - 48° 90.3° 64° - - -
5/23 3:20pm 287 15 G 21 81° 30% - - 47° 90.3° 64° - - -
5/23 3:10pm 289 14 G 20 81° 33% - - 49° 90.3° 64° - - -
5/23 3:00pm 278 12 G 16 82° 33% - - 50° 90.3° 64° - - -
5/23 2:50pm 281 12 G 17 83° 33% - - 50° 90.3° 64° - - -
5/23 2:40pm 270 11 G 15 83° 33% - - 51° 90.3° 64° - - -
5/23 2:30pm 271 11 G 16 84° 32% - - 51° 90.3° 64° - - -
5/23 2:20pm 277 11 G 16 83° 33% - - 51° 90.3° 64° - - -
5/23 2:10pm 280 10 G 17 83° 32% - - 50° 90.3° 64° - - -
5/23 2:00pm 279 11 G 18 84° 31% - - 50° 90.3° 64° - - -
5/23 1:50pm 261 10 G 16 84° 32% - - 50° 90.3° 64° - - -
5/23 1:40pm 260 10 G 15 84° 32% - - 51° 90.3° 64° - - -
5/23 1:30pm 268 9 G 14 85° 31% - - 50° 90.3° 64° - - -
5/23 1:20pm 254 9 G 14 85° 30% - - 50° 90.3° 64° - - -
5/23 1:10pm 242 10 G 15 85° 29% - - 49° 90.3° 64° - - -
5/23 1:00pm 248 10 G 16 86° 27% - - 49° 90.3° 64° - - -
5/23 12:50pm 251 10 G 18 87° 25% - - 47° 90.3° 64° - - -
5/23 12:40pm 247 10 G 15 88° 22% - - 45° 90.3° 64° - - -
5/23 12:30pm 243 8 G 14 89° 19% - - 42° 90.3° 64° - - -
5/23 12:20pm 249 9 G 13 89° 18% - - 40° 90.3° 64° - - -
5/23 12:10pm 246 9 G 16 89° 17% - - 39° 90.3° 64° - - -
5/23 12:00pm 269 9 G 15 88° 14% - - 33° 90.3° 64° - - -
5/23 11:50am 249 8 G 12 89° 15% - - 35° 90.3° 64° - - -
5/23 11:40am 239 7 G 12 89° 14% - - 34° 89.6° 64° - - -
5/23 11:30am 236 7 G 10 89° 14% - - 34° 89.6° 64° - - -
5/23 11:20am 250 6 G 9 89° 14% - - 33° 89.6° 64° - - -
5/23 11:10am 252 6 G 9 88° 14% - - 34° 88.8° 64° - - -
5/23 11:00am 251 6 G 9 88° 15% - - 34° 88.8° 64° - - -
5/23 10:50am 295 4 G 8 88° 14% - - 33° 88.8° 64° - - -
5/23 10:40am 329 3 G 5 88° 13% - - 31° 88.2° 64° - - -
5/23 10:30am 298 1 G 5 87° 14% - - 32° 88° 64° - - -
5/23 10:20am 173 2 G 7 85° 14% - - 31° 86.2° 64° - - -
5/23 10:10am 140 5 G 8 85° 15% - - 31° 85° 64° - - -
5/23 10:00am 179 3 G 6 84° 14% - - 31° 85° 64° - - -
5/23 9:50am 149 3 G 6 83° 15% - - 30° 83.7° 64° - - -
5/23 9:40am 133 3 G 6 82° 15% - - 30° 82.9° 64° - - -
5/23 9:30am 120 4 G 7 81° 15% - - 29° 81.8° 64° - - -
5/23 9:20am 124 3 G 5 80° 15% - - 29° 80.9° 64° - - -
5/23 9:10am 123 3 G 5 79° 16% - - 30° 79.8° 64° - - -
5/23 9:00am 117 3 G 5 79° 17% - - 30° 79.5° 64° - - -
5/23 8:50am 130 4 G 5 78° 18% - - 32° 79.2° 64° - - -
5/23 8:40am 159 3 G 5 78° 18% - - 31° 78.1° 64° - - -
5/23 8:30am 155 4 G 6 77° 18% - - 30° 77.2° 64° - - -
5/23 8:20am 127 4 G 5 76° 19% - - 31° 76.5° 64° - - -
5/23 8:10am 132 3 G 5 75° 22% - - 33° 75.5° 64° - - -
5/23 8:00am 134 3 G 5 74° 25% - - 36° 75° 64° - - -
5/23 7:50am 142 3 G 4 73° 25% - - 35° 73.7° 64° - - -
5/23 7:40am 134 2 G 3 71° 26% - - 35° 73° 64° - - -
5/23 7:30am 137 3 G 3 70° 26% - - 33° 73° 64° - - -
5/23 7:20am 132 3 G 4 69° 26% - - 33° 73° 64° - - -
5/23 7:10am 138 2 G 4 69° 27% - - 34° 73° 64° - - -
5/23 7:00am 142 2 G 4 69° 23% - - 30° 73° 64° - - -
5/23 6:50am 138 2 G 2 69° 23% - - 30° 73° 64° - - -
5/23 6:40am 107 2 G 2 72° 21% - - 30° 73° 64° - - -
5/23 6:30am 47 3 G 3 72° 20% - - 29° 73° 64° - - -
5/23 6:20am 92 2 G 3 69° 23% - - 30° 71.8° 64° - - -
5/23 6:10am 113 2 G 3 68° 25% - - 31° 71.8° 64° - - -
5/23 6:00am 115 2 G 2 67° 26% - - 32° 71.8° 64° - - -